createdAt,value
2019-01-22T00:00:26.025Z,44.45
2019-01-22T00:02:54.495Z,46.35
2019-01-22T00:05:22.905Z,49.50
2019-01-22T00:07:51.290Z,46.77
2019-01-22T00:10:19.689Z,45.78
2019-01-22T00:12:48.094Z,45.10
2019-01-22T00:15:17.120Z,46.35
2019-01-22T00:17:45.504Z,44.35
2019-01-22T00:20:15.163Z,46.77
2019-01-22T00:22:43.561Z,43.87
2019-01-22T00:25:15.736Z,44.13
2019-01-22T00:27:44.434Z,45.60
2019-01-22T00:30:18.693Z,50.25
2019-01-22T00:32:47.149Z,48.50
2019-01-22T00:35:15.964Z,41.02
2019-01-22T00:37:44.837Z,43.78
2019-01-22T00:40:16.010Z,43.13
2019-01-22T00:42:45.129Z,43.80
2019-01-22T00:45:14.063Z,43.23
2019-01-22T00:47:42.462Z,43.08
2019-01-22T00:50:13.679Z,40.58
2019-01-22T00:52:42.450Z,40.25
2019-01-22T00:55:13.596Z,43.55
2019-01-22T00:57:42.366Z,41.92
2019-01-22T01:00:17.097Z,45.55
2019-01-22T01:02:45.779Z,42.15
2019-01-22T01:05:15.488Z,45.25
2019-01-22T01:07:44.592Z,47.88
2019-01-22T01:10:14.925Z,41.35
2019-01-22T01:12:43.600Z,42.53
2019-01-22T01:15:14.026Z,47.27
2019-01-22T01:17:42.801Z,41.65
2019-01-22T01:20:19.694Z,46.18
2019-01-22T01:22:48.921Z,47.03
2019-01-22T01:25:19.879Z,43.42
2019-01-22T01:27:48.503Z,46.73
2019-01-22T01:30:22.102Z,48.10
2019-01-22T01:32:50.833Z,42.78
2019-01-22T01:35:19.416Z,45.45
2019-01-22T01:37:48.172Z,44.30
2019-01-22T01:40:18.091Z,46.50
2019-01-22T01:42:46.545Z,45.48
2019-01-22T01:45:16.323Z,44.05
2019-01-22T01:47:44.957Z,41.37
2019-01-22T01:50:17.633Z,40.43
2019-01-22T01:52:46.100Z,42.03
2019-01-22T01:55:17.155Z,43.98
2019-01-22T01:57:45.543Z,45.92
2019-01-22T02:00:17.031Z,40.12
2019-01-22T02:02:45.494Z,43.60
2019-01-22T02:05:14.041Z,40.23
2019-01-22T02:07:42.956Z,42.40
2019-01-22T02:10:16.970Z,44.13
2019-01-22T02:12:48.735Z,42.25
2019-01-22T02:15:23.044Z,40.25
2019-01-22T02:18:06.612Z,45.65
2019-01-22T02:20:54.564Z,40.90
2019-01-22T02:23:30.679Z,39.73
2019-01-22T02:26:20.359Z,41.48
2019-01-22T02:29:00.740Z,45.73
2019-01-22T02:31:38.109Z,44.48
2019-01-22T02:34:15.728Z,40.40
2019-01-22T02:37:04.373Z,45.08
2019-01-22T02:39:53.879Z,45.90
2019-01-22T02:42:28.328Z,43.28
2019-01-22T02:45:18.578Z,43.55
2019-01-22T02:47:52.920Z,41.92
2019-01-22T02:50:24.441Z,43.92
2019-01-22T02:52:58.540Z,38.25
2019-01-22T02:55:35.751Z,45.88
2019-01-22T02:58:16.022Z,40.08
2019-01-22T03:00:55.762Z,41.15
2019-01-22T03:03:39.454Z,40.75
2019-01-22T03:06:13.778Z,47.15
2019-01-22T03:08:50.982Z,43.63
2019-01-22T03:11:28.399Z,45.43
2019-01-22T03:14:20.933Z,46.18
2019-01-22T03:17:10.776Z,43.45
2019-01-22T03:19:57.130Z,43.87
2019-01-22T03:22:48.080Z,44.13
2019-01-22T03:25:19.527Z,45.63
2019-01-22T03:28:00.062Z,41.73
2019-01-22T03:30:46.616Z,40.10
2019-01-22T03:33:32.708Z,45.38
2019-01-22T03:36:04.460Z,42.30
2019-01-22T03:38:41.781Z,46.63
2019-01-22T03:41:22.121Z,42.58
2019-01-22T03:43:56.624Z,46.28
2019-01-22T03:46:31.096Z,44.23
2019-01-22T03:49:04.987Z,40.10
2019-01-22T03:51:37.021Z,44.65
2019-01-22T03:54:14.818Z,38.67
2019-01-22T03:56:49.366Z,43.28
2019-01-22T03:59:17.774Z,41.30
2019-01-22T04:01:46.455Z,39.40
2019-01-22T04:04:14.860Z,45.33
2019-01-22T04:06:43.319Z,46.77
2019-01-22T04:09:15.331Z,39.48
2019-01-22T04:11:44.429Z,48.42
2019-01-22T04:14:13.393Z,45.30
2019-01-22T04:16:41.803Z,40.60
2019-01-22T04:19:10.189Z,47.43
2019-01-22T04:21:38.994Z,46.55
2019-01-22T04:24:23.045Z,37.80
2019-01-22T04:27:00.312Z,40.78
2019-01-22T04:29:48.351Z,46.77
2019-01-22T04:32:20.464Z,38.35
2019-01-22T04:34:52.153Z,47.80
2019-01-22T04:37:32.455Z,41.77
2019-01-22T04:40:21.917Z,39.30
2019-01-22T04:43:09.492Z,42.15
2019-01-22T04:45:57.363Z,41.48
2019-01-22T04:48:43.862Z,43.78
2019-01-22T04:51:17.820Z,41.02
2019-01-22T04:53:52.072Z,43.87
2019-01-22T04:56:40.196Z,43.90
2019-01-22T04:59:36.635Z,45.80
2019-01-22T05:02:20.229Z,40.50
2019-01-22T05:04:51.688Z,40.08
2019-01-22T05:07:41.319Z,42.45
2019-01-22T05:10:18.932Z,42.73
2019-01-22T05:13:18.134Z,39.05
2019-01-22T05:16:08.942Z,38.65
2019-01-22T05:18:46.063Z,37.95
2019-01-22T05:21:40.994Z,38.55
2019-01-22T05:24:17.605Z,38.95
2019-01-22T05:27:03.712Z,39.98
2019-01-22T05:29:41.109Z,39.75
2019-01-22T05:32:18.393Z,37.75
2019-01-22T05:34:55.736Z,40.08
2019-01-22T05:37:27.422Z,42.95
2019-01-22T05:40:13.782Z,40.43
2019-01-22T05:42:50.676Z,38.65
2019-01-22T05:45:24.904Z,37.90
2019-01-22T05:47:56.359Z,40.33
2019-01-22T05:50:40.212Z,39.18
2019-01-22T05:53:23.417Z,39.90
2019-01-22T05:55:57.676Z,41.80
2019-01-22T05:58:37.646Z,40.23
2019-01-22T06:01:09.081Z,44.85
2019-01-22T06:03:46.407Z,45.35
2019-01-22T06:06:37.265Z,43.52
2019-01-22T06:09:23.651Z,48.45
2019-01-22T06:12:00.649Z,43.40
2019-01-22T06:14:37.520Z,43.05
2019-01-22T06:17:29.447Z,41.42
2019-01-22T06:20:19.348Z,40.83
2019-01-22T06:23:07.151Z,45.48
2019-01-22T06:25:41.407Z,40.98
2019-01-22T06:28:21.435Z,40.88
2019-01-22T06:31:01.602Z,43.83
2019-01-22T06:33:42.268Z,45.10
2019-01-22T06:36:28.655Z,45.80
2019-01-22T06:39:00.115Z,46.23
2019-01-22T06:41:58.677Z,45.98
2019-01-22T06:44:49.592Z,47.53
2019-01-22T06:47:27.300Z,42.60
2019-01-22T06:50:19.826Z,47.33
2019-01-22T06:52:57.176Z,45.67
2019-01-22T06:55:34.318Z,49.70
2019-01-22T06:58:17.630Z,43.83
2019-01-22T07:01:10.201Z,47.00
2019-01-22T07:03:47.360Z,44.70
2019-01-22T07:06:27.864Z,45.88
2019-01-22T07:09:02.720Z,48.98
2019-01-22T07:11:49.017Z,46.45
2019-01-22T07:14:29.160Z,47.62
2019-01-22T07:17:06.720Z,47.33
2019-01-22T07:20:02.433Z,49.53
2019-01-22T07:22:45.561Z,46.23
2019-01-22T07:25:22.712Z,50.17
2019-01-22T07:28:05.866Z,52.83
2019-01-22T07:31:10.971Z,52.55
2019-01-22T07:34:01.604Z,52.75
2019-01-22T07:36:48.115Z,45.15
2019-01-22T07:39:25.348Z,51.33
2019-01-22T07:42:15.213Z,56.58
2019-01-22T07:44:55.552Z,51.70
2019-01-22T07:47:29.954Z,51.83
2019-01-22T07:50:13.091Z,55.25
2019-01-22T07:52:47.918Z,53.28
2019-01-22T07:55:44.995Z,47.93
2019-01-22T07:58:47.916Z,53.90
2019-01-22T08:01:31.311Z,47.05
2019-01-22T08:04:22.505Z,46.35
2019-01-22T08:06:55.592Z,44.85
2019-01-22T08:09:43.507Z,51.42
2019-01-22T08:12:38.675Z,47.90
2019-01-22T08:15:16.314Z,48.45
2019-01-22T08:17:50.470Z,50.03
2019-01-22T08:20:31.104Z,48.38
2019-01-22T08:23:08.499Z,49.38
2019-01-22T08:25:58.378Z,49.35
2019-01-22T08:28:38.609Z,50.98
2019-01-22T08:31:26.735Z,41.77
2019-01-22T08:34:13.602Z,47.20
2019-01-22T08:37:03.532Z,47.53
2019-01-22T08:39:47.076Z,46.75
2019-01-22T08:42:37.001Z,43.02
2019-01-22T08:45:11.203Z,53.15
2019-01-22T08:47:45.425Z,40.92
2019-01-22T08:50:29.159Z,45.98
2019-01-22T08:53:06.461Z,47.25
2019-01-22T08:55:43.440Z,40.90
2019-01-22T08:58:27.279Z,41.10
2019-01-22T09:01:07.912Z,41.40
2019-01-22T09:03:54.385Z,38.50
2019-01-22T09:06:29.176Z,41.83
2019-01-22T09:09:12.194Z,42.17
2019-01-22T09:12:04.684Z,42.60
2019-01-22T09:14:54.171Z,39.23
2019-01-22T09:17:31.605Z,36.05
2019-01-22T09:20:03.365Z,42.85
2019-01-22T09:22:53.455Z,44.80
2019-01-22T09:25:27.875Z,40.75
2019-01-22T09:28:05.409Z,38.23
2019-01-22T09:30:42.779Z,39.05
2019-01-22T09:33:23.010Z,49.03
2019-01-22T09:35:57.541Z,40.65
2019-01-22T09:38:26.220Z,40.98
2019-01-22T09:40:54.617Z,44.13
2019-01-22T09:43:23.034Z,37.25
2019-01-22T09:45:51.447Z,43.45
2019-01-22T09:48:19.855Z,46.42
2019-01-22T09:50:48.263Z,40.38
2019-01-22T09:53:17.008Z,39.90
2019-01-22T09:55:45.435Z,40.67
2019-01-22T09:58:13.888Z,40.30
2019-01-22T10:00:42.486Z,42.95
2019-01-22T10:03:10.900Z,43.10
2019-01-22T10:05:39.929Z,39.25
2019-01-22T10:08:08.330Z,38.65
2019-01-22T10:10:36.987Z,40.17
2019-01-22T10:13:05.631Z,42.70
2019-01-22T10:15:34.095Z,44.73
2019-01-22T10:18:02.583Z,38.60
2019-01-22T10:20:31.152Z,42.48
2019-01-22T10:22:59.912Z,43.63
2019-01-22T10:25:29.534Z,46.15
2019-01-22T10:27:58.207Z,39.10
2019-01-22T10:30:27.075Z,40.33
2019-01-22T10:32:55.744Z,41.98
2019-01-22T10:35:24.120Z,39.18
2019-01-22T10:37:52.521Z,46.90
2019-01-22T10:40:24.013Z,41.33
2019-01-22T10:42:52.607Z,43.68
2019-01-22T10:45:21.539Z,42.88
2019-01-22T10:47:50.109Z,42.58
2019-01-22T10:50:22.889Z,45.98
2019-01-22T10:52:51.518Z,40.17
2019-01-22T10:55:19.974Z,41.00
2019-01-22T10:57:48.443Z,45.10
2019-01-22T11:00:22.679Z,44.97
2019-01-22T11:02:51.381Z,45.27
2019-01-22T11:05:22.984Z,44.90
2019-01-22T11:07:51.615Z,45.77
2019-01-22T11:10:20.013Z,45.83
2019-01-22T11:12:48.490Z,42.88
2019-01-22T11:15:16.964Z,47.80
2019-01-22T11:17:45.660Z,46.50
2019-01-22T11:20:22.603Z,46.63
2019-01-22T11:22:51.035Z,41.00
2019-01-22T11:25:23.063Z,45.67
2019-01-22T11:27:51.531Z,42.53
2019-01-22T11:30:24.558Z,47.98
2019-01-22T11:32:53.030Z,45.17
2019-01-22T11:35:25.197Z,52.83
2019-01-22T11:37:53.857Z,46.98
2019-01-22T11:40:31.060Z,45.23
2019-01-22T11:42:59.459Z,41.98
2019-01-22T11:45:28.165Z,41.23
2019-01-22T11:47:56.806Z,44.85
2019-01-22T11:50:25.228Z,45.33
2019-01-22T11:52:53.611Z,47.60
2019-01-22T11:55:22.018Z,49.42
2019-01-22T11:57:50.746Z,45.08
2019-01-22T12:00:23.826Z,48.63
2019-01-22T12:02:52.516Z,41.35
2019-01-22T12:05:20.999Z,45.70
2019-01-22T12:07:49.390Z,47.03
2019-01-22T12:10:17.781Z,48.80
2019-01-22T12:12:46.194Z,48.70
2019-01-22T12:15:17.307Z,43.37
2019-01-22T12:17:46.140Z,42.70
2019-01-22T12:20:23.623Z,43.57
2019-01-22T12:22:52.326Z,51.30
2019-01-22T12:25:20.706Z,48.47
2019-01-22T12:27:49.184Z,47.57
2019-01-22T12:30:29.979Z,43.30
2019-01-22T12:32:58.695Z,43.37
2019-01-22T12:35:27.124Z,39.50
2019-01-22T12:37:56.748Z,44.80
2019-01-22T12:40:28.153Z,48.37
2019-01-22T12:42:57.615Z,41.10
2019-01-22T12:45:32.214Z,44.97
2019-01-22T12:48:00.916Z,40.87
2019-01-22T12:50:29.372Z,44.60
2019-01-22T12:52:57.786Z,45.98
2019-01-22T12:55:26.188Z,44.10
2019-01-22T12:57:54.846Z,45.67
2019-01-22T13:00:34.719Z,39.73
2019-01-22T13:03:03.218Z,40.83
2019-01-22T13:05:46.490Z,46.17
2019-01-22T13:08:15.191Z,41.90
2019-01-22T13:10:43.976Z,42.30
2019-01-22T13:13:12.380Z,42.80
2019-01-22T13:15:40.787Z,42.13
2019-01-22T13:18:09.520Z,38.87
2019-01-22T13:20:42.947Z,46.07
2019-01-22T13:23:12.107Z,40.80
2019-01-22T13:25:40.832Z,43.30
2019-01-22T13:28:09.297Z,43.20
2019-01-22T13:30:37.709Z,41.70
2019-01-22T13:33:06.814Z,41.37
2019-01-22T13:35:35.257Z,45.53
2019-01-22T13:38:03.741Z,45.92
2019-01-22T13:40:32.312Z,44.13
2019-01-22T13:43:00.714Z,42.75
2019-01-22T13:45:32.138Z,40.90
2019-01-22T13:48:02.185Z,39.90
2019-01-22T13:50:30.745Z,48.23
2019-01-22T13:52:59.527Z,44.08
2019-01-22T13:55:30.467Z,46.73
2019-01-22T13:57:58.934Z,45.35
2019-01-22T14:00:28.761Z,42.98
2019-01-22T14:02:59.681Z,44.05
2019-01-22T14:05:28.806Z,36.88
2019-01-22T14:07:57.483Z,43.55
2019-01-22T14:10:25.903Z,44.08
2019-01-22T14:12:54.361Z,45.95
2019-01-22T14:15:35.934Z,43.65
2019-01-22T14:18:04.941Z,45.17
2019-01-22T14:20:33.710Z,41.47
2019-01-22T14:23:06.346Z,42.50
2019-01-22T14:25:35.091Z,40.45
2019-01-22T14:28:04.650Z,48.23
2019-01-22T14:30:38.233Z,50.08
2019-01-22T14:33:10.661Z,44.40
2019-01-22T14:35:41.079Z,42.75
2019-01-22T14:38:15.497Z,43.83
2019-01-22T14:40:43.918Z,41.18
2019-01-22T14:43:13.965Z,44.98
2019-01-22T14:45:42.958Z,42.15
2019-01-22T14:48:11.340Z,48.08
2019-01-22T14:50:39.915Z,42.78
2019-01-22T14:53:08.737Z,50.10
2019-01-22T14:55:37.311Z,46.55
2019-01-22T14:58:07.449Z,47.03
2019-01-22T15:00:35.986Z,45.73
2019-01-22T15:03:05.337Z,50.00
2019-01-22T15:05:33.743Z,44.60
2019-01-22T15:08:05.379Z,42.38
2019-01-22T15:10:33.794Z,48.67
2019-01-22T15:13:02.513Z,44.35
2019-01-22T15:15:31.240Z,43.85
2019-01-22T15:17:59.728Z,44.70
2019-01-22T15:20:30.880Z,43.83
2019-01-22T15:22:59.248Z,46.45
2019-01-22T15:25:27.939Z,46.63
2019-01-22T15:27:57.424Z,47.27
2019-01-22T15:30:28.930Z,50.45
2019-01-22T15:32:58.332Z,46.90
2019-01-22T15:35:30.534Z,47.62
2019-01-22T15:37:58.660Z,46.83
2019-01-22T15:40:29.455Z,46.92
2019-01-22T15:43:00.297Z,48.95
2019-01-22T15:45:29.054Z,53.63
2019-01-22T15:47:57.894Z,47.78
2019-01-22T15:50:38.487Z,46.35
2019-01-22T15:53:07.038Z,45.17
2019-01-22T15:55:36.220Z,48.60
2019-01-22T15:58:05.444Z,46.33
2019-01-22T16:00:38.406Z,43.30
2019-01-22T16:03:07.051Z,49.30
2019-01-22T16:05:35.529Z,48.80
2019-01-22T16:08:09.110Z,49.67
2019-01-22T16:10:37.527Z,47.57
2019-01-22T16:13:06.204Z,53.38
2019-01-22T16:15:35.175Z,52.15
2019-01-22T16:18:03.648Z,52.50
2019-01-22T16:20:32.128Z,51.95
2019-01-22T16:23:00.625Z,52.43
2019-01-22T16:25:29.487Z,47.78
2019-01-22T16:27:57.892Z,48.00
2019-01-22T16:30:27.284Z,51.90
2019-01-22T16:32:58.333Z,53.30
2019-01-22T16:35:26.861Z,51.92
2019-01-22T16:37:55.705Z,50.52
2019-01-22T16:40:24.722Z,51.70
2019-01-22T16:42:53.279Z,51.73
2019-01-22T16:45:24.664Z,49.30
2019-01-22T16:47:53.339Z,50.58
2019-01-22T16:50:27.654Z,51.20
2019-01-22T16:52:57.231Z,47.80
2019-01-22T16:55:34.361Z,45.15
2019-01-22T16:58:02.920Z,45.03
2019-01-22T17:00:33.844Z,51.42
2019-01-22T17:03:03.213Z,46.30
2019-01-22T17:05:32.053Z,52.27
2019-01-22T17:08:00.910Z,55.50
2019-01-22T17:10:30.676Z,51.05
2019-01-22T17:12:59.227Z,49.27
2019-01-22T17:15:27.847Z,45.17
2019-01-22T17:17:56.294Z,54.83
2019-01-22T17:20:27.645Z,49.18
2019-01-22T17:23:01.994Z,54.15
2019-01-22T17:25:26.496Z,53.85
2019-01-22T17:27:58.555Z,57.00
2019-01-22T17:30:27.113Z,46.15
2019-01-22T17:33:12.472Z,51.18
2019-01-22T17:35:42.596Z,51.30
2019-01-22T17:38:10.988Z,52.55
2019-01-22T17:40:39.662Z,53.80
2019-01-22T17:43:09.028Z,52.10
2019-01-22T17:45:37.420Z,51.30
2019-01-22T17:48:07.065Z,52.13
2019-01-22T17:50:35.461Z,55.95
2019-01-22T17:53:07.662Z,53.20
2019-01-22T17:55:34.360Z,51.77
2019-01-22T17:58:03.118Z,50.83
2019-01-22T18:00:33.623Z,51.68
2019-01-22T18:03:02.032Z,48.78
2019-01-22T18:05:30.504Z,55.85
2019-01-22T18:07:58.898Z,54.50
2019-01-22T18:10:28.240Z,47.88
2019-01-22T18:12:56.714Z,49.30
2019-01-22T18:15:25.339Z,50.95
2019-01-22T18:17:53.737Z,51.13
2019-01-22T18:20:24.706Z,55.83
2019-01-22T18:22:53.439Z,51.60
2019-01-22T18:25:21.832Z,51.63
2019-01-22T18:27:50.316Z,53.42
2019-01-22T18:30:24.087Z,50.28
2019-01-22T18:32:52.563Z,50.67
2019-01-22T18:35:27.170Z,51.20
2019-01-22T18:37:55.902Z,57.23
2019-01-22T18:40:24.368Z,46.60
2019-01-22T18:42:53.063Z,51.88
2019-01-22T18:45:21.673Z,47.98
2019-01-22T18:47:51.127Z,53.87
2019-01-22T18:50:23.510Z,51.58
2019-01-22T18:52:52.101Z,49.10
2019-01-22T18:55:21.172Z,50.98
2019-01-22T18:57:49.551Z,58.17
2019-01-22T19:00:21.800Z,50.03
2019-01-22T19:02:50.473Z,58.87
2019-01-22T19:05:21.059Z,50.95
2019-01-22T19:07:50.089Z,60.65
2019-01-22T19:10:23.845Z,54.53
2019-01-22T19:12:52.338Z,54.50
2019-01-22T19:15:22.013Z,56.83
2019-01-22T19:17:50.869Z,57.20
2019-01-22T19:20:19.377Z,54.00
2019-01-22T19:22:48.098Z,56.02
2019-01-22T19:25:21.693Z,55.98
2019-01-22T19:27:50.641Z,59.80
2019-01-22T19:30:24.528Z,56.80
2019-01-22T19:32:52.915Z,59.15
2019-01-22T19:35:21.593Z,68.37
2019-01-22T19:37:49.997Z,55.35
2019-01-22T19:40:19.672Z,54.67
2019-01-22T19:42:48.508Z,62.10
2019-01-22T19:45:19.675Z,57.45
2019-01-22T19:47:48.167Z,56.48
2019-01-22T19:50:17.279Z,59.95
2019-01-22T19:52:45.973Z,61.10
2019-01-22T19:55:14.848Z,62.60
2019-01-22T19:57:43.291Z,74.55
2019-01-22T20:00:17.918Z,64.65
2019-01-22T20:02:46.428Z,57.17
2019-01-22T20:05:15.559Z,59.90
2019-01-22T20:07:44.106Z,61.98
2019-01-22T20:10:15.466Z,64.07
2019-01-22T20:12:43.925Z,58.80
2019-01-22T20:15:15.310Z,67.58
2019-01-22T20:17:43.776Z,63.33
2019-01-22T20:20:15.063Z,63.68
2019-01-22T20:22:43.654Z,66.40
2019-01-22T20:25:12.727Z,63.38
2019-01-22T20:27:47.643Z,56.13
2019-01-22T20:30:25.738Z,63.75
2019-01-22T20:32:54.168Z,63.98
2019-01-22T20:35:22.560Z,65.42
2019-01-22T20:37:51.328Z,70.67
2019-01-22T20:40:20.212Z,66.17
2019-01-22T20:42:48.889Z,67.15
2019-01-22T20:45:20.263Z,61.23
2019-01-22T20:47:48.664Z,55.80
2019-01-22T20:50:19.327Z,60.73
2019-01-22T20:52:47.263Z,59.20
2019-01-22T20:55:24.004Z,61.42
2019-01-22T20:57:55.003Z,56.58
2019-01-22T21:00:24.441Z,62.40
2019-01-22T21:02:53.098Z,59.27
2019-01-22T21:05:26.546Z,64.45
2019-01-22T21:07:55.005Z,60.43
2019-01-22T21:10:29.248Z,59.53
2019-01-22T21:12:58.009Z,56.83
2019-01-22T21:15:26.738Z,57.43
2019-01-22T21:17:55.146Z,55.65
2019-01-22T21:20:23.586Z,58.73
2019-01-22T21:22:52.471Z,63.17
2019-01-22T21:25:22.718Z,59.70
2019-01-22T21:27:51.505Z,60.03
2019-01-22T21:30:28.059Z,69.12
2019-01-22T21:32:56.532Z,59.00
2019-01-22T21:35:24.946Z,61.40
2019-01-22T21:37:53.669Z,64.60
2019-01-22T21:40:22.060Z,59.70
2019-01-22T21:42:50.908Z,63.17
2019-01-22T21:45:22.040Z,57.23
2019-01-22T21:47:50.437Z,63.58
2019-01-22T21:50:18.981Z,57.80
2019-01-22T21:52:47.393Z,62.20
2019-01-22T21:55:20.958Z,67.30
2019-01-22T21:57:49.515Z,57.93
2019-01-22T22:00:20.653Z,59.77
2019-01-22T22:02:49.320Z,65.50
2019-01-22T22:05:20.282Z,60.15
2019-01-22T22:07:48.840Z,73.35
2019-01-22T22:10:19.076Z,63.00
2019-01-22T22:12:47.899Z,63.83
2019-01-22T22:15:19.658Z,63.83
2019-01-22T22:17:48.534Z,58.92
2019-01-22T22:20:18.132Z,63.02
2019-01-22T22:22:47.023Z,66.50
2019-01-22T22:25:20.309Z,60.52
2019-01-22T22:27:48.792Z,63.48
2019-01-22T22:30:23.037Z,68.30
2019-01-22T22:32:51.727Z,60.90
2019-01-22T22:35:20.249Z,59.23
2019-01-22T22:37:48.898Z,59.55
2019-01-22T22:40:19.701Z,75.25
2019-01-22T22:42:48.087Z,70.45
2019-01-22T22:45:18.908Z,59.88
2019-01-22T22:47:47.704Z,68.07
2019-01-22T22:50:21.546Z,64.42
2019-01-22T22:52:50.169Z,61.68
2019-01-22T22:55:18.890Z,62.78
2019-01-22T22:57:47.314Z,67.03
2019-01-22T23:00:32.724Z,64.35
2019-01-22T23:03:02.366Z,61.33
2019-01-22T23:05:31.015Z,63.30
2019-01-22T23:07:59.827Z,65.83
2019-01-22T23:10:28.393Z,62.53
2019-01-22T23:12:57.096Z,64.80
2019-01-22T23:15:25.636Z,62.30
2019-01-22T23:17:54.267Z,65.10
2019-01-22T23:20:22.944Z,60.15
2019-01-22T23:22:51.400Z,63.98
2019-01-22T23:25:19.792Z,59.85
2019-01-22T23:27:48.196Z,56.95
2019-01-22T23:30:17.798Z,58.45
2019-01-22T23:32:46.325Z,54.27
2019-01-22T23:35:16.465Z,64.55
2019-01-22T23:37:49.432Z,69.70
2019-01-22T23:40:18.173Z,65.50
2019-01-22T23:42:50.144Z,63.40
2019-01-22T23:45:19.040Z,61.20
2019-01-22T23:47:48.248Z,67.60
2019-01-22T23:50:17.165Z,66.33
2019-01-22T23:52:45.902Z,62.62
2019-01-22T23:55:14.750Z,61.25
2019-01-22T23:57:43.142Z,63.92
